sensor_id;sensor_type;location;lat;lon;timestamp;temperature;humidity
17762;DHT22;9005;48.838;10.112;2023-04-16T00:08:38;6.30;99.90
17762;DHT22;9005;48.838;10.112;2023-04-16T00:11:06;6.20;99.90
17762;DHT22;9005;48.838;10.112;2023-04-16T00:13:32;6.10;99.90
17762;DHT22;9005;48.838;10.112;2023-04-16T00:16:01;6.10;99.90
17762;DHT22;9005;48.838;10.112;2023-04-16T00:18:28;6.00;99.90
17762;DHT22;9005;48.838;10.112;2023-04-16T00:20:54;6.00;99.90
17762;DHT22;9005;48.838;10.112;2023-04-16T00:23:21;6.00;99.90
17762;DHT22;9005;48.838;10.112;2023-04-16T00:25:49;6.00;99.90
17762;DHT22;9005;48.838;10.112;2023-04-16T00:28:16;6.00;99.90
17762;DHT22;9005;48.838;10.112;2023-04-16T00:30:43;6.00;99.90
17762;DHT22;9005;48.838;10.112;2023-04-16T00:33:11;6.10;99.90
17762;DHT22;9005;48.838;10.112;2023-04-16T00:35:38;6.00;99.90
17762;DHT22;9005;48.838;10.112;2023-04-16T00:38:04;6.10;99.90
17762;DHT22;9005;48.838;10.112;2023-04-16T00:40:31;6.10;99.90
17762;DHT22;9005;48.838;10.112;2023-04-16T00:42:58;6.10;99.90
17762;DHT22;9005;48.838;10.112;2023-04-16T00:45:25;6.10;99.90
17762;DHT22;9005;48.838;10.112;2023-04-16T00:47:51;6.10;99.90
17762;DHT22;9005;48.838;10.112;2023-04-16T00:50:20;6.10;99.90
17762;DHT22;9005;48.838;10.112;2023-04-16T00:52:47;6.10;99.90
17762;DHT22;9005;48.838;10.112;2023-04-16T00:55:14;6.10;99.90
17762;DHT22;9005;48.838;10.112;2023-04-16T00:57:43;6.20;99.90
17762;DHT22;9005;48.838;10.112;2023-04-16T01:00:11;6.10;99.90
17762;DHT22;9005;48.838;10.112;2023-04-16T01:02:38;6.10;99.90
17762;DHT22;9005;48.838;10.112;2023-04-16T01:05:05;6.10;99.90
17762;DHT22;9005;48.838;10.112;2023-04-16T01:07:33;6.10;99.90
17762;DHT22;9005;48.838;10.112;2023-04-16T01:10:00;6.10;99.90
17762;DHT22;9005;48.838;10.112;2023-04-16T01:12:27;6.10;99.90
17762;DHT22;9005;48.838;10.112;2023-04-16T01:14:54;6.20;99.90
17762;DHT22;9005;48.838;10.112;2023-04-16T01:17:21;6.10;99.90
17762;DHT22;9005;48.838;10.112;2023-04-16T01:19:47;6.10;99.90
17762;DHT22;9005;48.838;10.112;2023-04-16T01:22:15;6.20;99.90
17762;DHT22;9005;48.838;10.112;2023-04-16T01:24:42;6.20;99.90
17762;DHT22;9005;48.838;10.112;2023-04-16T01:27:09;6.20;99.90
17762;DHT22;9005;48.838;10.112;2023-04-16T01:29:35;6.10;99.90
17762;DHT22;9005;48.838;10.112;2023-04-16T01:32:02;6.20;99.90
17762;DHT22;9005;48.838;10.112;2023-04-16T01:34:29;6.10;99.90
17762;DHT22;9005;48.838;10.112;2023-04-16T01:36:56;6.20;99.90
17762;DHT22;9005;48.838;10.112;2023-04-16T01:39:24;6.20;99.90
17762;DHT22;9005;48.838;10.112;2023-04-16T01:41:50;6.20;99.90
17762;DHT22;9005;48.838;10.112;2023-04-16T01:44:17;6.20;99.90
17762;DHT22;9005;48.838;10.112;2023-04-16T01:46:44;6.20;99.90
17762;DHT22;9005;48.838;10.112;2023-04-16T01:49:10;6.20;99.90
17762;DHT22;9005;48.838;10.112;2023-04-16T01:51:37;6.20;99.90
17762;DHT22;9005;48.838;10.112;2023-04-16T01:54:04;6.20;99.90
17762;DHT22;9005;48.838;10.112;2023-04-16T01:56:33;6.20;99.90
17762;DHT22;9005;48.838;10.112;2023-04-16T01:59:00;6.30;99.90
17762;DHT22;9005;48.838;10.112;2023-04-16T02:01:27;6.20;99.90
17762;DHT22;9005;48.838;10.112;2023-04-16T02:03:54;6.20;99.90
17762;DHT22;9005;48.838;10.112;2023-04-16T02:06:21;6.30;99.90
17762;DHT22;9005;48.838;10.112;2023-04-16T02:08:47;6.30;99.90
17762;DHT22;9005;48.838;10.112;2023-04-16T02:11:14;6.30;99.90
17762;DHT22;9005;48.838;10.112;2023-04-16T02:13:42;6.30;99.90
17762;DHT22;9005;48.838;10.112;2023-04-16T02:16:09;6.30;99.90
17762;DHT22;9005;48.838;10.112;2023-04-16T02:18:36;6.30;99.90
17762;DHT22;9005;48.838;10.112;2023-04-16T02:21:02;6.30;99.90
17762;DHT22;9005;48.838;10.112;2023-04-16T02:23:30;6.30;99.90
17762;DHT22;9005;48.838;10.112;2023-04-16T02:25:57;6.30;99.90
17762;DHT22;9005;48.838;10.112;2023-04-16T02:28:25;6.40;99.90
17762;DHT22;9005;48.838;10.112;2023-04-16T02:30:53;6.40;99.90
17762;DHT22;9005;48.838;10.112;2023-04-16T02:33:20;6.40;99.90
17762;DHT22;9005;48.838;10.112;2023-04-16T02:35:47;6.40;99.90
17762;DHT22;9005;48.838;10.112;2023-04-16T02:38:13;6.40;99.90
17762;DHT22;9005;48.838;10.112;2023-04-16T02:40:40;6.40;99.90
17762;DHT22;9005;48.838;10.112;2023-04-16T02:43:08;6.40;99.90
17762;DHT22;9005;48.838;10.112;2023-04-16T02:45:34;6.40;99.90
17762;DHT22;9005;48.838;10.112;2023-04-16T02:48:03;6.40;99.90
17762;DHT22;9005;48.838;10.112;2023-04-16T02:50:31;6.40;99.90
17762;DHT22;9005;48.838;10.112;2023-04-16T02:52:58;6.40;99.90
17762;DHT22;9005;48.838;10.112;2023-04-16T02:55:25;6.40;99.90
17762;DHT22;9005;48.838;10.112;2023-04-16T02:57:52;6.40;99.90
17762;DHT22;9005;48.838;10.112;2023-04-16T03:00:19;6.40;99.90
17762;DHT22;9005;48.838;10.112;2023-04-16T03:02:46;6.40;99.90
17762;DHT22;9005;48.838;10.112;2023-04-16T03:05:14;6.40;99.90
17762;DHT22;9005;48.838;10.112;2023-04-16T03:07:40;6.40;99.90
17762;DHT22;9005;48.838;10.112;2023-04-16T03:10:07;6.40;99.90
17762;DHT22;9005;48.838;10.112;2023-04-16T03:12:34;6.50;99.90
17762;DHT22;9005;48.838;10.112;2023-04-16T03:15:01;6.50;99.90
17762;DHT22;9005;48.838;10.112;2023-04-16T03:17:28;6.50;99.90
17762;DHT22;9005;48.838;10.112;2023-04-16T03:19:55;6.50;99.90
17762;DHT22;9005;48.838;10.112;2023-04-16T03:22:23;6.50;99.90
17762;DHT22;9005;48.838;10.112;2023-04-16T03:24:50;6.50;99.90
17762;DHT22;9005;48.838;10.112;2023-04-16T03:27:17;6.50;99.90
17762;DHT22;9005;48.838;10.112;2023-04-16T03:29:43;6.50;99.90
17762;DHT22;9005;48.838;10.112;2023-04-16T03:32:10;6.50;99.90
17762;DHT22;9005;48.838;10.112;2023-04-16T03:34:37;6.50;99.90
17762;DHT22;9005;48.838;10.112;2023-04-16T03:37:04;6.50;99.90
17762;DHT22;9005;48.838;10.112;2023-04-16T03:39:33;6.50;99.90
17762;DHT22;9005;48.838;10.112;2023-04-16T03:42:00;6.50;99.90
17762;DHT22;9005;48.838;10.112;2023-04-16T03:44:27;6.50;99.90
17762;DHT22;9005;48.838;10.112;2023-04-16T03:46:54;6.50;99.90
17762;DHT22;9005;48.838;10.112;2023-04-16T03:49:21;6.50;99.90
17762;DHT22;9005;48.838;10.112;2023-04-16T03:51:47;6.50;99.90
17762;DHT22;9005;48.838;10.112;2023-04-16T03:54:14;6.50;99.90
17762;DHT22;9005;48.838;10.112;2023-04-16T03:56:42;6.50;99.90
17762;DHT22;9005;48.838;10.112;2023-04-16T03:59:09;6.50;99.90
17762;DHT22;9005;48.838;10.112;2023-04-16T04:01:36;6.50;99.90
17762;DHT22;9005;48.838;10.112;2023-04-16T04:04:02;6.50;99.90
17762;DHT22;9005;48.838;10.112;2023-04-16T04:06:29;6.50;99.90
17762;DHT22;9005;48.838;10.112;2023-04-16T04:08:57;6.50;99.90
17762;DHT22;9005;48.838;10.112;2023-04-16T04:11:23;6.50;99.90
17762;DHT22;9005;48.838;10.112;2023-04-16T04:13:52;6.50;99.90
17762;DHT22;9005;48.838;10.112;2023-04-16T04:16:18;6.50;99.90
17762;DHT22;9005;48.838;10.112;2023-04-16T04:18:45;6.60;99.90
17762;DHT22;9005;48.838;10.112;2023-04-16T04:21:12;6.60;99.90
17762;DHT22;9005;48.838;10.112;2023-04-16T04:23:38;6.60;99.90
17762;DHT22;9005;48.838;10.112;2023-04-16T04:26:06;6.60;99.90
17762;DHT22;9005;48.838;10.112;2023-04-16T04:28:33;6.50;99.90
17762;DHT22;9005;48.838;10.112;2023-04-16T04:31:01;6.60;99.90
17762;DHT22;9005;48.838;10.112;2023-04-16T04:33:28;6.60;99.90
17762;DHT22;9005;48.838;10.112;2023-04-16T04:35:55;6.50;99.90
17762;DHT22;9005;48.838;10.112;2023-04-16T04:38:21;6.60;99.90
17762;DHT22;9005;48.838;10.112;2023-04-16T04:40:49;6.60;99.90
17762;DHT22;9005;48.838;10.112;2023-04-16T04:43:16;6.60;99.90
17762;DHT22;9005;48.838;10.112;2023-04-16T04:45:43;6.60;99.90
17762;DHT22;9005;48.838;10.112;2023-04-16T04:48:11;6.60;99.90
17762;DHT22;9005;48.838;10.112;2023-04-16T04:50:37;6.60;99.90
17762;DHT22;9005;48.838;10.112;2023-04-16T04:53:05;6.60;99.90
17762;DHT22;9005;48.838;10.112;2023-04-16T04:55:34;6.60;99.90
17762;DHT22;9005;48.838;10.112;2023-04-16T04:58:02;6.60;99.90
17762;DHT22;9005;48.838;10.112;2023-04-16T05:00:28;6.60;99.90
17762;DHT22;9005;48.838;10.112;2023-04-16T05:02:55;6.60;99.90
17762;DHT22;9005;48.838;10.112;2023-04-16T05:05:23;6.60;99.90
17762;DHT22;9005;48.838;10.112;2023-04-16T05:07:50;6.60;99.90
17762;DHT22;9005;48.838;10.112;2023-04-16T05:10:16;6.60;99.90
17762;DHT22;9005;48.838;10.112;2023-04-16T05:12:45;6.60;99.90
17762;DHT22;9005;48.838;10.112;2023-04-16T05:15:11;6.70;99.90
17762;DHT22;9005;48.838;10.112;2023-04-16T05:17:38;6.70;99.90
17762;DHT22;9005;48.838;10.112;2023-04-16T05:20:06;6.60;99.90
17762;DHT22;9005;48.838;10.112;2023-04-16T05:22:34;6.60;99.90
17762;DHT22;9005;48.838;10.112;2023-04-16T05:25:01;6.70;99.90
17762;DHT22;9005;48.838;10.112;2023-04-16T05:27:28;6.70;99.90
17762;DHT22;9005;48.838;10.112;2023-04-16T05:29:55;6.70;99.90
17762;DHT22;9005;48.838;10.112;2023-04-16T05:32:23;6.70;99.90
17762;DHT22;9005;48.838;10.112;2023-04-16T05:34:50;6.70;99.90
17762;DHT22;9005;48.838;10.112;2023-04-16T05:37:17;6.70;99.90
17762;DHT22;9005;48.838;10.112;2023-04-16T05:39:45;6.70;99.90
17762;DHT22;9005;48.838;10.112;2023-04-16T05:42:11;6.70;99.90
17762;DHT22;9005;48.838;10.112;2023-04-16T05:44:39;6.70;99.90
17762;DHT22;9005;48.838;10.112;2023-04-16T05:47:05;6.70;99.90
17762;DHT22;9005;48.838;10.112;2023-04-16T05:49:33;6.70;99.90
17762;DHT22;9005;48.838;10.112;2023-04-16T05:52:00;6.70;99.90
17762;DHT22;9005;48.838;10.112;2023-04-16T05:54:27;6.70;99.90
17762;DHT22;9005;48.838;10.112;2023-04-16T05:56:55;6.70;99.90
17762;DHT22;9005;48.838;10.112;2023-04-16T05:59:22;6.70;99.90
17762;DHT22;9005;48.838;10.112;2023-04-16T06:01:48;6.70;99.90
17762;DHT22;9005;48.838;10.112;2023-04-16T06:04:15;6.70;99.90
17762;DHT22;9005;48.838;10.112;2023-04-16T06:06:42;6.80;99.90
17762;DHT22;9005;48.838;10.112;2023-04-16T06:09:09;6.70;99.90
17762;DHT22;9005;48.838;10.112;2023-04-16T06:11:36;6.80;99.90
17762;DHT22;9005;48.838;10.112;2023-04-16T06:14:04;6.80;99.90
17762;DHT22;9005;48.838;10.112;2023-04-16T06:16:30;6.80;99.90
17762;DHT22;9005;48.838;10.112;2023-04-16T06:18:57;6.80;99.90
17762;DHT22;9005;48.838;10.112;2023-04-16T06:21:24;6.80;99.90
17762;DHT22;9005;48.838;10.112;2023-04-16T06:23:51;6.80;99.90
17762;DHT22;9005;48.838;10.112;2023-04-16T06:26:17;6.80;99.90
17762;DHT22;9005;48.838;10.112;2023-04-16T06:28:44;6.80;99.90
17762;DHT22;9005;48.838;10.112;2023-04-16T06:31:12;6.80;99.90
17762;DHT22;9005;48.838;10.112;2023-04-16T06:33:39;6.80;99.90
17762;DHT22;9005;48.838;10.112;2023-04-16T06:36:06;6.80;99.90
17762;DHT22;9005;48.838;10.112;2023-04-16T06:38:32;6.90;99.90
17762;DHT22;9005;48.838;10.112;2023-04-16T06:40:59;6.90;99.90
17762;DHT22;9005;48.838;10.112;2023-04-16T06:43:26;6.90;99.90
17762;DHT22;9005;48.838;10.112;2023-04-16T06:45:54;6.80;99.90
17762;DHT22;9005;48.838;10.112;2023-04-16T06:48:22;6.80;99.90
17762;DHT22;9005;48.838;10.112;2023-04-16T06:50:49;6.90;99.90
17762;DHT22;9005;48.838;10.112;2023-04-16T06:53:16;6.90;99.90
17762;DHT22;9005;48.838;10.112;2023-04-16T06:55:42;6.90;99.90
17762;DHT22;9005;48.838;10.112;2023-04-16T06:58:09;7.00;99.90
17762;DHT22;9005;48.838;10.112;2023-04-16T07:00:36;7.00;99.90
17762;DHT22;9005;48.838;10.112;2023-04-16T07:03:03;7.00;99.90
17762;DHT22;9005;48.838;10.112;2023-04-16T07:05:31;7.00;99.90
17762;DHT22;9005;48.838;10.112;2023-04-16T07:07:58;7.00;99.90
17762;DHT22;9005;48.838;10.112;2023-04-16T07:10:24;7.00;99.90
17762;DHT22;9005;48.838;10.112;2023-04-16T07:12:51;7.00;99.90
17762;DHT22;9005;48.838;10.112;2023-04-16T07:15:18;7.00;99.90
17762;DHT22;9005;48.838;10.112;2023-04-16T07:17:44;7.00;99.90
17762;DHT22;9005;48.838;10.112;2023-04-16T07:20:11;7.00;99.90
17762;DHT22;9005;48.838;10.112;2023-04-16T07:22:39;7.00;99.90
17762;DHT22;9005;48.838;10.112;2023-04-16T07:25:07;7.00;99.90
17762;DHT22;9005;48.838;10.112;2023-04-16T07:27:34;7.10;99.90
17762;DHT22;9005;48.838;10.112;2023-04-16T07:30:00;7.10;99.90
17762;DHT22;9005;48.838;10.112;2023-04-16T07:32:27;7.10;99.90
17762;DHT22;9005;48.838;10.112;2023-04-16T07:34:54;7.10;99.90
17762;DHT22;9005;48.838;10.112;2023-04-16T07:37:20;7.10;99.90
17762;DHT22;9005;48.838;10.112;2023-04-16T07:39:49;7.10;99.90
17762;DHT22;9005;48.838;10.112;2023-04-16T07:42:16;7.10;99.90
17762;DHT22;9005;48.838;10.112;2023-04-16T07:44:43;7.10;99.90
17762;DHT22;9005;48.838;10.112;2023-04-16T07:47:09;7.10;99.90
17762;DHT22;9005;48.838;10.112;2023-04-16T07:49:36;7.10;99.90
17762;DHT22;9005;48.838;10.112;2023-04-16T07:52:03;7.10;99.90
17762;DHT22;9005;48.838;10.112;2023-04-16T07:54:29;7.10;99.90
17762;DHT22;9005;48.838;10.112;2023-04-16T07:56:57;7.20;99.90
17762;DHT22;9005;48.838;10.112;2023-04-16T07:59:24;7.10;99.90
17762;DHT22;9005;48.838;10.112;2023-04-16T08:01:51;7.10;99.90
17762;DHT22;9005;48.838;10.112;2023-04-16T08:04:18;7.10;99.90
17762;DHT22;9005;48.838;10.112;2023-04-16T08:06:48;7.20;99.90
17762;DHT22;9005;48.838;10.112;2023-04-16T08:09:15;7.20;99.90
17762;DHT22;9005;48.838;10.112;2023-04-16T08:11:42;7.20;99.90
17762;DHT22;9005;48.838;10.112;2023-04-16T08:14:10;7.20;99.90
17762;DHT22;9005;48.838;10.112;2023-04-16T08:16:37;7.20;99.90
17762;DHT22;9005;48.838;10.112;2023-04-16T08:19:04;7.10;99.90
17762;DHT22;9005;48.838;10.112;2023-04-16T08:21:32;7.20;99.90
17762;DHT22;9005;48.838;10.112;2023-04-16T08:23:58;7.20;99.90
17762;DHT22;9005;48.838;10.112;2023-04-16T08:26:25;7.20;99.90
17762;DHT22;9005;48.838;10.112;2023-04-16T08:28:52;7.20;99.90
17762;DHT22;9005;48.838;10.112;2023-04-16T08:31:20;7.20;99.90
17762;DHT22;9005;48.838;10.112;2023-04-16T08:33:47;7.20;99.90
17762;DHT22;9005;48.838;10.112;2023-04-16T08:36:13;7.20;99.90
17762;DHT22;9005;48.838;10.112;2023-04-16T08:38:40;7.20;99.90
17762;DHT22;9005;48.838;10.112;2023-04-16T08:41:10;7.20;99.90
17762;DHT22;9005;48.838;10.112;2023-04-16T08:43:39;7.20;99.90
17762;DHT22;9005;48.838;10.112;2023-04-16T08:46:09;7.20;99.90
17762;DHT22;9005;48.838;10.112;2023-04-16T08:48:37;7.30;99.90
17762;DHT22;9005;48.838;10.112;2023-04-16T08:51:08;7.30;99.90
17762;DHT22;9005;48.838;10.112;2023-04-16T08:53:42;7.20;99.90
17762;DHT22;9005;48.838;10.112;2023-04-16T08:56:13;7.30;99.90
17762;DHT22;9005;48.838;10.112;2023-04-16T08:58:41;7.30;99.90
17762;DHT22;9005;48.838;10.112;2023-04-16T09:01:09;7.30;99.90
17762;DHT22;9005;48.838;10.112;2023-04-16T09:03:38;7.30;99.90
17762;DHT22;9005;48.838;10.112;2023-04-16T09:06:05;7.30;99.90
17762;DHT22;9005;48.838;10.112;2023-04-16T09:08:33;7.30;99.90
17762;DHT22;9005;48.838;10.112;2023-04-16T09:11:02;7.30;99.90
17762;DHT22;9005;48.838;10.112;2023-04-16T09:13:30;7.30;99.90
17762;DHT22;9005;48.838;10.112;2023-04-16T09:15:57;7.30;99.90
17762;DHT22;9005;48.838;10.112;2023-04-16T09:18:25;7.30;99.90
17762;DHT22;9005;48.838;10.112;2023-04-16T09:20:53;7.40;99.90
17762;DHT22;9005;48.838;10.112;2023-04-16T09:23:21;7.40;99.90
17762;DHT22;9005;48.838;10.112;2023-04-16T09:25:49;7.40;99.90
17762;DHT22;9005;48.838;10.112;2023-04-16T09:28:37;7.40;99.90
17762;DHT22;9005;48.838;10.112;2023-04-16T09:31:08;7.40;99.90
17762;DHT22;9005;48.838;10.112;2023-04-16T09:33:35;7.30;99.90
17762;DHT22;9005;48.838;10.112;2023-04-16T09:36:04;7.30;99.90
17762;DHT22;9005;48.838;10.112;2023-04-16T09:38:45;7.30;99.90
17762;DHT22;9005;48.838;10.112;2023-04-16T09:41:12;7.30;99.90
17762;DHT22;9005;48.838;10.112;2023-04-16T09:43:41;7.30;99.90
17762;DHT22;9005;48.838;10.112;2023-04-16T09:46:14;7.30;99.90
17762;DHT22;9005;48.838;10.112;2023-04-16T09:48:41;7.30;99.90
17762;DHT22;9005;48.838;10.112;2023-04-16T09:51:12;7.30;99.90
17762;DHT22;9005;48.838;10.112;2023-04-16T09:53:39;7.30;99.90
17762;DHT22;9005;48.838;10.112;2023-04-16T09:56:06;7.30;99.90
17762;DHT22;9005;48.838;10.112;2023-04-16T09:58:35;7.30;99.90
17762;DHT22;9005;48.838;10.112;2023-04-16T10:01:02;7.30;99.90
17762;DHT22;9005;48.838;10.112;2023-04-16T10:03:29;7.30;99.90
17762;DHT22;9005;48.838;10.112;2023-04-16T10:05:59;7.30;99.90
17762;DHT22;9005;48.838;10.112;2023-04-16T10:08:27;7.30;99.90
17762;DHT22;9005;48.838;10.112;2023-04-16T10:10:55;7.30;99.90
17762;DHT22;9005;48.838;10.112;2023-04-16T10:13:22;7.30;99.90
17762;DHT22;9005;48.838;10.112;2023-04-16T10:15:54;7.40;99.90
17762;DHT22;9005;48.838;10.112;2023-04-16T10:18:21;7.80;99.90
17762;DHT22;9005;48.838;10.112;2023-04-16T10:20:48;7.50;99.90
17762;DHT22;9005;48.838;10.112;2023-04-16T10:23:15;7.50;99.90
17762;DHT22;9005;48.838;10.112;2023-04-16T10:25:43;7.50;99.90
17762;DHT22;9005;48.838;10.112;2023-04-16T10:28:11;7.50;99.90
17762;DHT22;9005;48.838;10.112;2023-04-16T10:30:39;7.50;99.90
17762;DHT22;9005;48.838;10.112;2023-04-16T10:33:07;7.50;99.90
17762;DHT22;9005;48.838;10.112;2023-04-16T10:35:38;7.50;99.90
17762;DHT22;9005;48.838;10.112;2023-04-16T10:38:20;7.50;99.90
17762;DHT22;9005;48.838;10.112;2023-04-16T10:40:48;7.50;99.90
17762;DHT22;9005;48.838;10.112;2023-04-16T10:43:17;7.60;99.90
17762;DHT22;9005;48.838;10.112;2023-04-16T10:45:44;7.60;99.90
17762;DHT22;9005;48.838;10.112;2023-04-16T10:48:10;7.60;99.90
17762;DHT22;9005;48.838;10.112;2023-04-16T10:50:39;7.60;99.90
17762;DHT22;9005;48.838;10.112;2023-04-16T10:53:19;7.70;99.90
17762;DHT22;9005;48.838;10.112;2023-04-16T10:56:09;7.80;99.90
17762;DHT22;9005;48.838;10.112;2023-04-16T10:58:40;7.90;99.90
17762;DHT22;9005;48.838;10.112;2023-04-16T11:01:10;8.00;99.90
17762;DHT22;9005;48.838;10.112;2023-04-16T11:03:40;7.90;99.90
17762;DHT22;9005;48.838;10.112;2023-04-16T11:06:12;7.90;99.90
17762;DHT22;9005;48.838;10.112;2023-04-16T11:08:39;7.90;99.90
17762;DHT22;9005;48.838;10.112;2023-04-16T11:11:08;7.90;99.90
17762;DHT22;9005;48.838;10.112;2023-04-16T11:13:35;7.90;99.90
17762;DHT22;9005;48.838;10.112;2023-04-16T11:16:03;7.80;99.90
17762;DHT22;9005;48.838;10.112;2023-04-16T11:18:30;7.80;99.90
17762;DHT22;9005;48.838;10.112;2023-04-16T11:20:57;7.70;99.90
17762;DHT22;9005;48.838;10.112;2023-04-16T11:23:24;7.70;99.90
17762;DHT22;9005;48.838;10.112;2023-04-16T11:25:50;7.80;99.90
17762;DHT22;9005;48.838;10.112;2023-04-16T11:28:32;7.70;99.90
17762;DHT22;9005;48.838;10.112;2023-04-16T11:31:00;7.80;99.90
17762;DHT22;9005;48.838;10.112;2023-04-16T11:33:34;7.70;99.90
17762;DHT22;9005;48.838;10.112;2023-04-16T11:36:01;7.70;99.90
17762;DHT22;9005;48.838;10.112;2023-04-16T11:38:35;7.70;99.90
17762;DHT22;9005;48.838;10.112;2023-04-16T11:41:02;7.70;99.90
17762;DHT22;9005;48.838;10.112;2023-04-16T11:43:29;7.70;99.90
17762;DHT22;9005;48.838;10.112;2023-04-16T11:45:58;7.70;99.90
17762;DHT22;9005;48.838;10.112;2023-04-16T11:48:45;7.70;99.90
17762;DHT22;9005;48.838;10.112;2023-04-16T11:51:12;7.60;99.90
17762;DHT22;9005;48.838;10.112;2023-04-16T11:53:45;7.60;99.90
17762;DHT22;9005;48.838;10.112;2023-04-16T11:56:11;7.60;99.90
17762;DHT22;9005;48.838;10.112;2023-04-16T11:58:38;7.60;99.90
17762;DHT22;9005;48.838;10.112;2023-04-16T12:01:07;7.60;99.90
17762;DHT22;9005;48.838;10.112;2023-04-16T12:03:38;7.60;99.90
17762;DHT22;9005;48.838;10.112;2023-04-16T12:06:07;7.60;99.90
17762;DHT22;9005;48.838;10.112;2023-04-16T12:08:34;7.60;99.90
17762;DHT22;9005;48.838;10.112;2023-04-16T12:11:01;7.60;99.90
17762;DHT22;9005;48.838;10.112;2023-04-16T12:13:27;7.60;99.90
17762;DHT22;9005;48.838;10.112;2023-04-16T12:15:55;7.60;99.90
17762;DHT22;9005;48.838;10.112;2023-04-16T12:18:24;7.60;99.90
17762;DHT22;9005;48.838;10.112;2023-04-16T12:20:51;7.60;99.90
17762;DHT22;9005;48.838;10.112;2023-04-16T12:23:22;7.60;99.90
17762;DHT22;9005;48.838;10.112;2023-04-16T12:25:49;7.60;99.90
17762;DHT22;9005;48.838;10.112;2023-04-16T12:28:26;7.50;99.90
17762;DHT22;9005;48.838;10.112;2023-04-16T12:30:53;7.50;99.90
17762;DHT22;9005;48.838;10.112;2023-04-16T12:33:20;7.60;99.90
17762;DHT22;9005;48.838;10.112;2023-04-16T12:35:48;7.60;99.90
17762;DHT22;9005;48.838;10.112;2023-04-16T12:38:15;7.60;99.90
17762;DHT22;9005;48.838;10.112;2023-04-16T12:40:42;7.60;99.90
17762;DHT22;9005;48.838;10.112;2023-04-16T12:43:09;7.70;99.90
17762;DHT22;9005;48.838;10.112;2023-04-16T12:45:36;7.70;99.90
17762;DHT22;9005;48.838;10.112;2023-04-16T12:48:04;7.70;99.90
17762;DHT22;9005;48.838;10.112;2023-04-16T12:50:30;7.70;99.90
17762;DHT22;9005;48.838;10.112;2023-04-16T12:52:59;7.70;99.90
17762;DHT22;9005;48.838;10.112;2023-04-16T12:55:25;7.70;99.90
17762;DHT22;9005;48.838;10.112;2023-04-16T12:57:53;7.70;99.90
17762;DHT22;9005;48.838;10.112;2023-04-16T13:00:20;7.70;99.90
17762;DHT22;9005;48.838;10.112;2023-04-16T13:02:47;7.70;99.90
17762;DHT22;9005;48.838;10.112;2023-04-16T13:05:14;7.60;99.90
17762;DHT22;9005;48.838;10.112;2023-04-16T13:07:43;7.60;99.90
17762;DHT22;9005;48.838;10.112;2023-04-16T13:10:11;7.60;99.90
17762;DHT22;9005;48.838;10.112;2023-04-16T13:12:38;7.70;99.90
17762;DHT22;9005;48.838;10.112;2023-04-16T13:15:06;7.70;99.90
17762;DHT22;9005;48.838;10.112;2023-04-16T13:17:33;7.70;99.90
17762;DHT22;9005;48.838;10.112;2023-04-16T13:19:59;7.70;99.90
17762;DHT22;9005;48.838;10.112;2023-04-16T13:22:26;7.70;99.90
17762;DHT22;9005;48.838;10.112;2023-04-16T13:24:54;7.80;99.90
17762;DHT22;9005;48.838;10.112;2023-04-16T13:27:22;7.80;99.90
17762;DHT22;9005;48.838;10.112;2023-04-16T13:29:49;7.80;99.90
17762;DHT22;9005;48.838;10.112;2023-04-16T13:32:15;7.80;99.90
17762;DHT22;9005;48.838;10.112;2023-04-16T13:34:43;7.70;99.90
17762;DHT22;9005;48.838;10.112;2023-04-16T13:37:10;7.80;99.90
17762;DHT22;9005;48.838;10.112;2023-04-16T13:39:36;7.80;99.90
17762;DHT22;9005;48.838;10.112;2023-04-16T13:42:03;7.70;99.90
17762;DHT22;9005;48.838;10.112;2023-04-16T13:44:31;7.80;99.90
17762;DHT22;9005;48.838;10.112;2023-04-16T13:46:58;7.70;99.90
17762;DHT22;9005;48.838;10.112;2023-04-16T13:49:25;7.70;99.90
17762;DHT22;9005;48.838;10.112;2023-04-16T13:51:51;7.70;99.90
17762;DHT22;9005;48.838;10.112;2023-04-16T13:54:18;7.80;99.90
17762;DHT22;9005;48.838;10.112;2023-04-16T13:56:45;7.70;99.90
17762;DHT22;9005;48.838;10.112;2023-04-16T13:59:11;7.80;99.90
17762;DHT22;9005;48.838;10.112;2023-04-16T14:01:41;7.80;99.90
17762;DHT22;9005;48.838;10.112;2023-04-16T14:04:08;7.80;99.90
17762;DHT22;9005;48.838;10.112;2023-04-16T14:06:34;7.80;99.90
17762;DHT22;9005;48.838;10.112;2023-04-16T14:09:01;7.80;99.90
17762;DHT22;9005;48.838;10.112;2023-04-16T14:11:28;7.80;99.90
17762;DHT22;9005;48.838;10.112;2023-04-16T14:13:55;7.80;99.90
17762;DHT22;9005;48.838;10.112;2023-04-16T14:16:22;7.80;99.90
17762;DHT22;9005;48.838;10.112;2023-04-16T14:18:50;7.80;99.90
17762;DHT22;9005;48.838;10.112;2023-04-16T14:21:17;7.80;99.90
17762;DHT22;9005;48.838;10.112;2023-04-16T14:23:44;7.80;99.90
17762;DHT22;9005;48.838;10.112;2023-04-16T14:26:11;7.80;99.90
17762;DHT22;9005;48.838;10.112;2023-04-16T14:28:37;7.80;99.90
17762;DHT22;9005;48.838;10.112;2023-04-16T14:31:05;7.80;99.90
17762;DHT22;9005;48.838;10.112;2023-04-16T14:33:32;7.80;99.90
17762;DHT22;9005;48.838;10.112;2023-04-16T14:36:00;7.80;99.90
17762;DHT22;9005;48.838;10.112;2023-04-16T14:38:27;7.90;99.90
17762;DHT22;9005;48.838;10.112;2023-04-16T14:40:54;7.80;99.90
17762;DHT22;9005;48.838;10.112;2023-04-16T14:43:20;7.80;99.90
17762;DHT22;9005;48.838;10.112;2023-04-16T14:45:47;7.90;99.90
17762;DHT22;9005;48.838;10.112;2023-04-16T14:48:14;7.90;99.90
17762;DHT22;9005;48.838;10.112;2023-04-16T14:50:40;7.90;99.90
17762;DHT22;9005;48.838;10.112;2023-04-16T14:53:10;7.90;99.90
17762;DHT22;9005;48.838;10.112;2023-04-16T14:55:37;7.90;99.90
17762;DHT22;9005;48.838;10.112;2023-04-16T14:58:04;7.90;99.90
17762;DHT22;9005;48.838;10.112;2023-04-16T15:00:32;7.90;99.90
17762;DHT22;9005;48.838;10.112;2023-04-16T15:02:59;7.90;99.90
17762;DHT22;9005;48.838;10.112;2023-04-16T15:05:26;7.90;99.90
17762;DHT22;9005;48.838;10.112;2023-04-16T15:07:53;7.90;99.90
17762;DHT22;9005;48.838;10.112;2023-04-16T15:10:21;7.90;99.90
17762;DHT22;9005;48.838;10.112;2023-04-16T15:12:48;8.10;99.90
17762;DHT22;9005;48.838;10.112;2023-04-16T15:20:10;7.90;99.90
17762;DHT22;9005;48.838;10.112;2023-04-16T15:22:37;7.90;99.90
17762;DHT22;9005;48.838;10.112;2023-04-16T15:25:04;7.90;99.90
17762;DHT22;9005;48.838;10.112;2023-04-16T15:27:32;7.90;99.90
17762;DHT22;9005;48.838;10.112;2023-04-16T15:29:59;7.90;99.90
17762;DHT22;9005;48.838;10.112;2023-04-16T15:32:26;7.90;99.90
17762;DHT22;9005;48.838;10.112;2023-04-16T15:34:52;7.90;99.90
17762;DHT22;9005;48.838;10.112;2023-04-16T15:37:19;7.90;99.90
17762;DHT22;9005;48.838;10.112;2023-04-16T15:39:46;7.90;99.90
17762;DHT22;9005;48.838;10.112;2023-04-16T15:42:14;8.00;99.90
17762;DHT22;9005;48.838;10.112;2023-04-16T15:44:43;8.00;99.90
17762;DHT22;9005;48.838;10.112;2023-04-16T15:47:09;7.90;99.90
17762;DHT22;9005;48.838;10.112;2023-04-16T15:49:36;8.00;99.90
17762;DHT22;9005;48.838;10.112;2023-04-16T15:52:03;8.10;99.90
17762;DHT22;9005;48.838;10.112;2023-04-16T15:54:30;8.10;99.90
17762;DHT22;9005;48.838;10.112;2023-04-16T15:56:57;8.10;99.90
17762;DHT22;9005;48.838;10.112;2023-04-16T15:59:24;8.10;99.90